Latest Weather Observations for Newcastle Nobbys

IDN60901

Issued at 7:34 pm EDT Wednesday 4 March 2015 (issued every 10 minutes, with the page automatically refreshed every 10 minutes)

About weather observations | Map of Sydney area stations | Latest observations for Sydney area | Other Formats
Station Details ID: 061055 Name: NEWCASTLE NOBBYS SIGNAL STATION AWS Lat: -32.92 Lon: 151.80 Height: 33.0 m
Data from the previous 72 hours. | See also: Recent months at Newcastle Nobbys
Date/Time
EDT
Tmp

°C
App
Tmp
°C
Dew
Point
°C
Rel
Hum
%
Delta-T

°C
Wind Press
QNH
hPa
Press
MSL
hPa
Rain
since
9 am
mm
Dir
 
Spd
km/h
Gust
km/h
Spd
kts
Gust
kts
04/07:30pm 24.2 26.8 21.9 87 1.5 ENE 11 17 6 9 - - 0.0
04/07:00pm 24.1 26.6 21.8 87 1.5 ENE 11 13 6 7 - - 0.0
04/06:30pm 24.3 26.8 21.8 86 1.7 E 11 17 6 9 - - 0.0
04/06:00pm 24.3 26.3 21.6 85 1.8 E 13 15 7 8 - - 0.0
04/05:30pm 24.6 26.6 21.5 83 2.1 ESE 13 17 7 9 - - 0.0
04/05:00pm 24.5 26.2 21.6 84 1.9 ESE 15 17 8 9 - - 0.0
04/04:30pm 24.1 25.2 21.2 84 1.9 ESE 17 19 9 10 - - 0.0
04/04:00pm 24.4 24.8 20.9 81 2.3 SE 20 22 11 12 - - 0.0
04/03:30pm 24.6 24.9 20.7 79 2.6 ESE 20 22 11 12 - - 0.0
04/03:00pm 24.8 24.6 20.5 77 2.8 ESE 22 26 12 14 - - 0.0
04/02:30pm 25.1 25.5 21.0 78 2.7 ESE 20 22 11 12 - - 0.0
04/02:00pm 25.0 25.6 21.1 79 2.6 SE 19 20 10 11 - - 0.0
04/01:30pm 24.6 25.0 20.7 79 2.6 SE 19 20 10 11 - - 0.0
04/01:00pm 25.9 27.0 20.5 72 3.5 ESE 15 19 8 10 - - 0.0
04/12:30pm 28.2 30.7 21.7 68 4.4 ENE 11 13 6 7 - - 0.0
04/12:00pm 28.3 31.8 22.1 69 4.2 NE 7 11 4 6 - - 0.0
04/11:30am 25.8 28.2 20.8 74 3.3 N 9 13 5 7 - - 0.0
04/11:00am 24.2 25.6 20.3 79 2.5 NNW 13 17 7 9 - - 0.0
04/10:30am 23.6 25.2 19.9 80 2.4 NNW 11 15 6 8 - - 0.0
04/10:00am 23.3 25.6 19.9 81 2.2 N 7 11 4 6 - - 0.0
04/09:30am 22.3 24.2 19.7 85 1.7 N 9 13 5 7 - - 0.0
04/09:00am 22.1 23.7 19.1 83 1.9 NNE 9 11 5 6 - - 0.0
04/08:30am 22.1 24.3 19.1 83 1.9 NNE 6 7 3 4 - - 0.0
04/08:00am 21.9 23.4 18.9 83 1.9 NNE 9 11 5 6 - - 0.0
04/07:30am 22.1 24.3 19.1 83 1.9 NE 6 9 3 5 - - 0.0
04/07:00am 22.1 24.2 18.9 82 2.0 NE 6 11 3 6 - - 0.0
04/06:30am 22.1 24.1 19.1 83 1.9 NE 7 9 4 5 - - 0.0
04/06:00am 22.4 24.6 19.2 82 2.0 NE 6 9 3 5 - - 0.0
04/05:30am 22.4 24.5 19.0 81 2.2 ENE 6 7 3 4 - - 0.0
04/05:00am 22.4 23.8 18.6 79 2.4 ENE 9 13 5 7 - - 0.0
04/04:30am 22.5 24.2 19.3 82 2.0 E 9 11 5 6 - - 0.0
04/04:00am 22.5 23.7 19.1 81 2.2 E 11 11 6 6 - - 0.0
04/03:30am 22.5 24.1 19.1 81 2.2 ESE 9 11 5 6 - - 0.0
04/03:00am 22.5 24.7 19.3 82 2.0 SSE 6 7 3 4 - - 0.0
04/02:30am 22.6 24.6 19.2 81 2.2 ESE 7 9 4 5 - - 0.0
04/02:00am 22.5 24.7 19.1 81 2.2 E 6 7 3 4 - - 0.0
04/01:30am 22.5 24.5 19.1 81 2.2 E 7 9 4 5 - - 0.0
04/01:00am 22.6 24.2 19.2 81 2.2 ENE 9 11 5 6 - - 0.0
04/12:30am 22.7 24.4 19.3 81 2.2 ENE 9 13 5 7 - - 0.0
04/12:00am 22.7 24.4 19.3 81 2.2 NE 9 15 5 8 - - 0.0
 
Date/Time
EDT
Tmp

°C
App
Tmp
°C
Dew
Point
°C
Rel
Hum
%
Delta-T

°C
Wind Press
QNH
hPa
Press
MSL
hPa
Rain
since
9 am
mm
Dir
 
Spd
km/h
Gust
km/h
Spd
kts
Gust
kts
03/11:30pm 22.9 24.3 19.5 81 2.2 NE 11 15 6 8 - - 0.0
03/11:00pm 22.9 23.5 19.5 81 2.2 NE 15 19 8 10 - - 0.0
03/10:30pm 22.9 22.7 19.3 80 2.3 NE 19 24 10 13 - - 0.0
03/10:00pm 23.0 22.7 19.2 79 2.4 NE 19 24 10 13 - - 0.0
03/09:30pm 23.1 22.6 19.1 78 2.5 NE 20 26 11 14 - - 0.0
03/09:00pm 23.2 22.9 19.2 78 2.5 NE 19 22 10 12 - - 0.0
03/08:30pm 23.2 22.6 18.9 77 2.7 NE 20 28 11 15 - - 0.0
03/08:00pm 23.2 22.6 18.9 77 2.7 ENE 20 28 11 15 - - 0.0
03/07:30pm 23.1 21.3 19.5 80 2.3 ENE 28 35 15 19 - - 0.0
03/07:00pm 23.3 20.9 19.2 78 2.6 ENE 30 39 16 21 - - 0.0
03/06:30pm 23.2 20.8 19.2 78 2.5 ENE 30 39 16 21 - - 0.0
03/06:00pm 23.6 21.6 19.1 76 2.9 ENE 28 33 15 18 - - 0.0
03/05:30pm 23.7 21.5 18.8 74 3.1 ENE 28 33 15 18 - - 0.0
03/05:00pm 23.9 21.2 18.5 72 3.4 ENE 30 35 16 19 - - 0.0
03/04:30pm 24.0 21.4 18.6 72 3.4 E 30 35 16 19 - - 0.0
03/04:00pm 24.0 21.4 18.6 72 3.4 E 30 35 16 19 - - 0.0
03/03:30pm 24.0 21.6 18.2 70 3.6 E 28 33 15 18 - - 0.0
03/03:00pm 24.0 21.7 17.7 68 3.9 E 26 32 14 17 - - 0.0
03/02:30pm 23.9 21.1 17.4 67 4.0 E 28 32 15 17 - - 0.0
03/02:00pm 24.0 22.0 17.3 66 4.2 E 24 30 13 16 - - 0.0
03/01:30pm 24.3 22.6 17.1 64 4.5 E 22 24 12 13 - - 0.0
03/01:00pm 24.6 23.6 17.6 65 4.4 E 19 20 10 11 - - 0.0
03/12:30pm 25.0 24.5 17.0 61 5.0 E 15 17 8 9 - - 0.0
03/12:00pm 25.2 25.5 16.9 60 5.1 E 11 13 6 7 - - 0.0
03/11:30am 24.8 25.3 16.5 60 5.1 NNE 9 13 5 7 - - 0.0
03/11:00am 25.0 26.1 17.0 61 5.0 N 7 9 4 5 - - 0.0
03/10:30am 23.7 24.4 16.2 63 4.6 N 7 9 4 5 - - 0.0
03/10:00am 23.0 23.7 16.1 65 4.2 N 7 9 4 5 - - 0.0
03/09:30am 22.0 22.5 16.5 71 3.3 N 9 11 5 6 - - 0.0
03/09:00am 21.2 21.9 16.2 73 3.0 N 7 9 4 5 - - 0.0
03/08:30am 20.6 21.8 15.8 74 2.9 NW 4 6 2 3 - - 0.0
03/08:00am 19.5 20.4 15.2 76 2.5 WNW 4 6 2 3 - - 0.0
03/07:30am 18.8 19.9 15.5 81 1.9 WNW 4 6 2 3 - - 0.0
03/07:00am 18.2 19.3 15.6 85 1.5 WNW 4 6 2 3 - - 0.0
03/06:30am 17.8 18.5 15.6 87 1.3 WNW 6 7 3 4 - - 0.0
03/06:00am 17.8 18.4 15.4 86 1.4 NW 6 6 3 3 - - 0.0
03/05:30am 18.2 18.9 15.6 85 1.5 NW 6 6 3 3 - - 0.0
03/05:00am 18.2 18.9 15.5 84 1.6 WNW 6 6 3 3 - - 0.0
03/04:30am 18.5 19.4 16.1 86 1.4 WNW 6 7 3 4 - - 0.0
03/04:00am 19.2 21.0 16.4 84 1.7 WNW 2 4 1 2 - - 0.0
03/03:30am 19.4 21.1 16.2 82 1.9 NNW 2 4 1 2 - - 0.0
03/03:00am 19.4 21.4 15.9 80 2.1 CALM 0 0 0 0 - - 0.0
03/02:30am 19.7 20.9 15.8 78 2.3 WNW 4 4 2 2 - - 0.0
03/02:00am 19.4 20.3 16.1 81 2.0 WNW 6 6 3 3 - - 0.0
03/01:30am 19.8 20.5 15.7 77 2.4 W 6 6 3 3 - - 0.0
03/01:00am 20.0 21.2 15.8 77 2.5 W 4 4 2 2 - - 0.0
03/12:30am 20.1 21.2 15.7 76 2.6 WNW 4 4 2 2 - - 0.0
03/12:00am 20.1 21.3 15.9 77 2.5 WNW 4 6 2 3 - - 0.0
 
Date/Time
EDT
Tmp

°C
App
Tmp
°C
Dew
Point
°C
Rel
Hum
%
Delta-T

°C
Wind Press
QNH
hPa
Press
MSL
hPa
Rain
since
9 am
mm
Dir
 
Spd
km/h
Gust
km/h
Spd
kts
Gust
kts
02/11:30pm 21.3 21.8 15.6 70 3.4 ENE 7 9 4 5 - - 0.0
02/11:00pm 21.4 21.4 14.3 64 4.1 ENE 7 9 4 5 - - 0.0
02/10:30pm 21.4 21.7 14.6 65 4.0 ENE 6 7 3 4 - - 0.0
02/10:00pm 21.3 21.5 14.7 66 3.9 E 7 9 4 5 - - 0.0
02/09:30pm 21.4 21.4 14.3 64 4.1 ESE 7 9 4 5 - - 0.0
02/09:00pm 21.5 21.0 13.9 62 4.4 ESE 9 9 5 5 - - 0.0
02/08:30pm 21.6 20.9 14.3 63 4.3 ESE 11 13 6 7 - - 0.0
02/08:00pm 21.7 20.5 14.1 62 4.4 ESE 13 15 7 8 - - 0.0
02/07:30pm 21.9 20.3 14.0 61 4.6 ESE 15 15 8 8 - - 0.0
02/07:00pm 22.3 20.5 14.4 61 4.6 ESE 17 19 9 10 - - 0.0
02/06:30pm 22.4 20.3 13.7 58 5.1 ESE 17 19 9 10 - - 0.0
02/06:00pm 22.6 20.3 14.2 59 4.9 ESE 19 20 10 11 - - 0.0
02/05:30pm 22.9 20.5 13.9 57 5.3 ESE 19 22 10 12 - - 0.0
02/05:00pm 23.0 20.7 14.0 57 5.3 ESE 19 22 10 12 - - 0.0
02/04:30pm 22.9 20.5 13.9 57 5.3 ESE 19 22 10 12 - - 0.0
02/04:00pm 23.1 20.9 14.9 60 4.9 SE 20 22 11 12 - - 0.0
02/03:30pm 22.9 20.7 14.5 59 5.0 SE 19 22 10 12 - - 0.0
02/03:00pm 22.9 20.6 14.7 60 4.9 SE 20 24 11 13 - - 0.0
02/02:30pm 22.8 20.7 14.6 60 4.8 SE 19 20 10 11 - - 0.0
02/02:00pm 22.9 20.3 15.0 61 4.7 SE 22 26 12 14 - - 0.0
02/01:30pm 22.4 21.2 17.5 74 3.0 SSW 20 28 11 15 - - 0.0
02/01:00pm 22.2 19.9 17.6 75 2.8 SSW 26 33 14 18 - - 0.0
02/12:30pm 22.1 19.5 17.7 76 2.7 SSW 28 35 15 19 - - 0.0
02/12:00pm 21.8 19.2 17.8 78 2.5 SSW 28 37 15 20 - - 0.0
02/11:30am 21.4 18.9 17.0 76 2.7 SSW 26 33 14 18 - - 0.0
02/11:00am 21.1 18.4 16.5 75 2.8 SSW 26 39 14 21 - - 0.0
02/10:30am 20.9 18.2 16.5 76 2.7 SSW 26 33 14 18 - - 0.0
02/10:00am 20.8 18.8 16.4 76 2.7 SSW 22 28 12 15 - - 0.0
02/09:30am 20.2 18.8 16.6 80 2.2 SW 19 24 10 13 - - 0.0
02/09:00am 20.7 17.8 16.1 75 2.8 SSW 26 33 14 18 - - 6.6
02/08:30am 21.7 18.8 16.2 71 3.3 S 26 35 14 19 - - 6.6
02/08:00am 22.4 19.8 16.0 67 3.9 S 24 28 13 15 - - 6.6
02/07:30am 22.1 20.5 16.4 70 3.5 S 20 24 11 13 - - 6.6
02/07:00am 22.0 18.9 15.6 67 3.8 S 26 30 14 16 - - 6.6
02/06:30am 22.1 17.5 15.2 65 4.1 S 33 37 18 20 - - 6.6
02/06:00am 22.2 16.9 14.3 61 4.6 S 35 43 19 23 - - 6.6
02/05:30am 22.2 17.5 14.3 61 4.6 SSE 32 35 17 19 - - 6.6
02/05:00am 22.0 18.3 15.1 65 4.1 S 28 33 15 18 - - 6.6
02/04:30am 21.5 16.3 16.5 73 3.0 SSE 39 46 21 25 - - 6.6
02/04:00am 21.6 17.6 16.8 74 2.9 SSE 33 39 18 21 - - 6.6
02/03:30am 21.1 17.2 16.9 77 2.6 S 33 43 18 23 - - 6.6
02/03:00am 20.5 15.5 17.1 81 2.1 S 39 46 21 25 - - 6.6
02/02:30am 21.1 16.4 16.9 77 2.6 S 37 52 20 28 - - 6.6
02/02:00am 21.2 16.2 17.0 77 2.6 S 39 50 21 27 - - 6.6
02/01:30am 21.4 15.6 17.0 76 2.7 S 43 57 23 31 - - 6.6
02/01:00am 22.0 16.2 17.4 75 2.8 S 44 57 24 31 - - 6.6
02/12:30am 22.4 15.7 17.1 72 3.3 S 48 59 26 32 - - 6.6
02/12:00am 21.8 16.0 18.2 80 2.2 S 46 56 25 30 - - 6.6
 
Date/Time
EDT
Tmp

°C
App
Tmp
°C
Dew
Point
°C
Rel
Hum
%
Delta-T

°C
Wind Press
QNH
hPa
Press
MSL
hPa
Rain
since
9 am
mm
Dir
 
Spd
km/h
Gust
km/h
Spd
kts
Gust
kts
01/11:30pm 22.2 15.6 18.2 78 2.5 S 50 59 27 32 - - 6.6
01/11:00pm 22.3 15.4 18.3 78 2.5 S 52 63 28 34 - - 6.6
01/10:30pm 22.4 16.2 19.2 82 2.0 S 50 65 27 35 - - 6.4
01/10:00pm 22.1 17.4 20.7 92 0.9 S 46 56 25 30 - - 6.4
01/09:37pm 22.9 20.5 21.0 89 1.2 S 35 54 19 29 - - 6.0
01/09:30pm 23.0 21.1 20.9 88 1.4 S 32 37 17 20 - - 6.0
01/09:00pm 22.8 21.5 20.7 88 1.4 S 28 33 15 18 - - 6.0
01/08:30pm 22.4 21.3 21.0 92 0.9 SSE 28 33 15 18 - - 6.0
01/08:00pm 22.7 21.7 21.9 95 0.5 S 30 35 16 19 - - 6.0

Latest Capital City Observations: Canberra | Sydney | Melbourne | Brisbane | Adelaide | Perth | Hobart | Darwin

Other Formats:

Comma delimited format used in spreadsheet applications
http://www.bom.gov.au/fwo/IDN60901/IDN60901.94774.axf

JavaScript Object Notation format (JSON) in row-major order
http://www.bom.gov.au/fwo/IDN60901/IDN60901.94774.json